aviador You're here:

KGPH Decoded Metar

in
Report Time2017-09-20 20:15:00
UTC Time2017-09-20 20:12:51
Flight Rules vfr VFR
Wind200° at 08 kt
W.Decomp.*RWY 18: 7.5 kt HW 2.7 kt RCW
W.Rank200° ranks 13
Current wind is below 200° avg. (8.4)
Visibility9999 m
Phenomena:N/A
Clouds:Broken 038 Hf
Overcast 043 Hf
Expected CloudBase > 3,600 ft AGL from Temp-Dew spread
Ceiling3,800 ft
Temp30°C
Dew Point21°C (59% RH)
Heat Index32.6°C
QNH1009 hPa
Raw Report
KGPH 202015Z AUTO 20008KT 10SM BKN038 OVC043 30/21 A2980 RMK
AO2=

Extra information for KGPH:More info

Social comments